Terminal Aerodrome Forecast
Issued by NWS

Home | Current Version | Previous Version | Text Only | Print | Product List | Glossary On
Versions: 1 2 3 4 5 6 7 8 9 10 11 12 13 14 15 16 17
000
FTUS45 KRIW 302332 AAA
TAFCPR
TAF AMD
KCPR 302332Z 0100/0124 30022G35KT P6SM -TSRA SCT070CB BKN100
     FM010015 VRB13G22KT P6SM VCTS SCT080CB BKN100
     FM010500 30010KT P6SM SCT100
     FM012300 34007KT P6SM VCTS SCT080CB=

USA.gov is the U.S. government's official web portal to all federal, state and local government web resources and services.